Time;durP1;ratioP1;P1;durP2;ratioP2;P2;SDS_P1;SDS_P2;PMS_P1;PMS_P2;Temp;Humidity;BMP_temperature;BMP_pressure;BME280_temperature;BME280_humidity;BME280_pressure;Samples;Min_cycle;Max_cycle;Signal;HPM_P1;HPM_P2
2023/07/01 00:00:05;;;;;;;;;;;;;;;17.40;66.88;99908.09;7348238;19;19928;-57
2023/07/01 00:02:30;;;;;;;;;;;;;;;17.40;66.67;99921.31;7350362;19;19915;-58
2023/07/01 00:04:56;;;;;;;;;;;;;;;17.38;66.80;99906.38;7345550;19;19925;-58
2023/07/01 00:07:21;;;;;;;;;;;;;;;17.37;66.47;99924.97;7350086;19;19986;-57
2023/07/01 00:09:46;;;;;;;;;;;;;;;17.36;66.56;99921.47;7348326;19;19957;-57
2023/07/01 00:12:12;;;;;;;;;;;;;;;17.35;66.34;99925.06;7350474;19;20721;-58
2023/07/01 00:14:37;;;;;;;;;;;;;;;17.34;66.37;99919.91;7347069;19;19938;-58
2023/07/01 00:17:02;;;;;;;;;;;;;;;17.31;66.18;99920.94;7350517;19;19933;-57
2023/07/01 00:19:27;;;;;;;;;;;;;;;17.31;66.46;99920.94;7349850;19;20030;-58
2023/07/01 00:21:52;;;;;;;;;;;;;;;17.29;66.28;99925.47;7349600;19;20371;-58
2023/07/01 00:24:18;;;;;;;;;;;;;;;17.28;66.33;99925.53;7348098;19;19939;-58
2023/07/01 00:26:43;;;;;;;;;;;;;;;17.27;66.52;99929.97;7345805;19;19910;-58
2023/07/01 00:29:08;;;;;;;;;;;;;;;17.28;66.25;99938.72;7345610;19;20030;-57
2023/07/01 00:31:33;;;;;;;;;;;;;;;17.26;66.49;99933.56;7348950;19;20683;-58
2023/07/01 00:33:59;;;;;;;;;;;;;;;17.26;66.29;99944.13;7346908;19;19927;-58
2023/07/01 00:36:24;;;;;;;;;;;;;;;17.26;66.72;99941.47;7348671;19;19927;-57
2023/07/01 00:38:49;;;;;;;;;;;;;;;17.24;66.45;99932.81;7347385;19;19918;-57
2023/07/01 00:41:17;;;;;;;;;;;;;;;17.24;66.61;99927.53;7348688;19;19919;-57
2023/07/01 00:43:42;;;;;;;;;;;;;;;17.22;66.58;99932.06;7345653;19;19935;-57
2023/07/01 00:46:08;;;;;;;;;;;;;;;17.21;66.73;99930.38;7348242;19;20006;-57
2023/07/01 00:48:33;;;;;;;;;;;;;;;17.20;66.85;99939.22;7347628;19;19922;-58
2023/07/01 00:50:58;;;;;;;;;;;;;;;17.21;66.62;99940.91;7348848;19;19931;-58
2023/07/01 00:53:24;;;;;;;;;;;;;;;17.20;66.70;99933.94;7347324;19;19926;-57
2023/07/01 00:55:49;;;;;;;;;;;;;;;17.18;66.62;99935.81;7347708;19;19927;-58
2023/07/01 00:58:15;;;;;;;;;;;;;;;17.17;66.66;99931.50;7347422;19;19927;-57
2023/07/01 01:00:40;;;;;;;;;;;;;;;17.18;66.63;99929.69;7347924;19;20793;-57
2023/07/01 01:03:06;;;;;;;;;;;;;;;17.17;67.05;99943.84;7348582;19;19957;-58
2023/07/01 01:05:39;;;;;;;;;;;;;;;17.17;66.84;99928.84;7347909;19;19922;-57
2023/07/01 01:08:20;;;;;;;;;;;;;;;17.15;66.91;99936.03;7346935;19;19952;-57
2023/07/01 01:10:47;;;;;;;;;;;;;;;17.13;67.12;99940.53;7348590;19;20351;-57
2023/07/01 01:13:14;;;;;;;;;;;;;;;17.11;67.14;99942.44;7347271;19;19963;-58
2023/07/01 01:15:39;;;;;;;;;;;;;;;17.09;66.63;99934.63;7346852;19;19987;-57
2023/07/01 01:18:05;;;;;;;;;;;;;;;17.08;66.91;99938.22;7346795;19;19933;-57
2023/07/01 01:20:31;;;;;;;;;;;;;;;17.06;66.85;99936.59;7349014;19;20278;-57
2023/07/01 01:23:08;;;;;;;;;;;;;;;17.05;66.96;99929.63;7344969;19;20012;-57
2023/07/01 01:25:45;;;;;;;;;;;;;;;17.03;67.11;99936.78;7345320;19;19943;-57
2023/07/01 01:28:11;;;;;;;;;;;;;;;17.01;67.13;99934.25;7347052;19;20252;-57
2023/07/01 01:30:37;;;;;;;;;;;;;;;17.00;66.76;99936.97;7345666;19;19959;-57
2023/07/01 01:33:03;;;;;;;;;;;;;;;16.99;66.60;99935.28;7345905;19;20411;-57
2023/07/01 01:35:28;;;;;;;;;;;;;;;16.98;67.09;99936.19;7344056;19;20140;-58
2023/07/01 01:38:13;;;;;;;;;;;;;;;16.96;67.25;99919.63;7359315;19;19923;-57
2023/07/01 01:40:47;;;;;;;;;;;;;;;16.95;67.21;99920.59;7360975;19;19922;-58
2023/07/01 01:43:27;;;;;;;;;;;;;;;16.94;67.01;99925.00;7360807;19;19919;-58
2023/07/01 01:45:53;;;;;;;;;;;;;;;16.93;67.37;99930.38;7360065;19;19919;-57
2023/07/01 01:48:18;;;;;;;;;;;;;;;16.92;66.89;99928.69;7361522;19;22082;-57
2023/07/01 01:50:47;;;;;;;;;;;;;;;16.92;66.95;99929.53;7359964;19;19922;-57
2023/07/01 01:53:12;;;;;;;;;;;;;;;16.90;67.27;99930.56;7360098;19;20625;-58
2023/07/01 01:55:38;;;;;;;;;;;;;;;16.89;66.81;99929.72;7360606;19;20025;-57
2023/07/01 01:58:03;;;;;;;;;;;;;;;16.88;67.20;99933.31;7357003;19;19919;-57
2023/07/01 02:00:31;;;;;;;;;;;;;;;16.85;67.12;99936.97;7360170;19;19919;-58
2023/07/01 02:02:56;;;;;;;;;;;;;;;16.83;67.10;99930.94;7360718;19;20858;-57
2023/07/01 02:05:22;;;;;;;;;;;;;;;16.82;66.78;99934.50;7356450;19;19927;-57
2023/07/01 02:07:47;;;;;;;;;;;;;;;16.80;66.84;99936.41;7359337;19;19941;-58
2023/07/01 02:10:13;;;;;;;;;;;;;;;16.78;67.00;99942.72;7359435;19;19930;-57
2023/07/01 02:12:38;;;;;;;;;;;;;;;16.76;66.76;99940.16;7359481;19;19939;-59
2023/07/01 02:15:04;;;;;;;;;;;;;;;16.73;66.41;99940.34;7356630;19;19949;-58
2023/07/01 02:17:29;;;;;;;;;;;;;;;16.73;66.57;99944.78;7357883;19;19948;-58
2023/07/01 02:19:55;;;;;;;;;;;;;;;16.69;66.50;99943.25;7356683;19;19922;-58
2023/07/01 02:22:20;;;;;;;;;;;;;;;16.67;66.28;99945.09;7359549;19;19943;-58
2023/07/01 02:24:45;;;;;;;;;;;;;;;16.63;66.45;99939.19;7357492;19;20034;-57
2023/07/01 02:27:10;;;;;;;;;;;;;;;16.62;66.29;99937.47;7359632;19;19944;-58
2023/07/01 02:29:36;;;;;;;;;;;;;;;16.59;66.25;99935.03;7356891;19;19926;-57
2023/07/01 02:32:02;;;;;;;;;;;;;;;16.56;66.26;99937.84;7356164;19;19922;-57
2023/07/01 02:34:28;;;;;;;;;;;;;;;16.53;66.69;99943.31;7359868;19;19918;-58
2023/07/01 02:36:53;;;;;;;;;;;;;;;16.50;66.23;99943.47;7359368;19;19930;-57
2023/07/01 02:39:18;;;;;;;;;;;;;;;16.46;66.34;99937.53;7356945;19;20381;-57
2023/07/01 02:41:44;;;;;;;;;;;;;;;16.44;66.64;99933.31;7360319;19;19969;-57
2023/07/01 02:44:11;;;;;;;;;;;;;;;16.38;66.60;99942.44;7356361;19;19939;-57
2023/07/01 02:46:36;;;;;;;;;;;;;;;16.35;66.72;99939.97;7359955;19;19927;-57
2023/07/01 02:49:02;;;;;;;;;;;;;;;16.30;66.58;99942.84;7351839;19;19926;-58
2023/07/01 02:51:27;;;;;;;;;;;;;;;16.27;66.95;99943.06;7349889;19;19954;-57
2023/07/01 02:53:53;;;;;;;;;;;;;;;16.25;66.98;99950.19;7351281;19;19959;-57
2023/07/01 02:56:18;;;;;;;;;;;;;;;16.23;66.96;99945.97;7349541;19;19948;-57
2023/07/01 02:58:43;;;;;;;;;;;;;;;16.21;67.07;99959.19;7350053;19;19930;-58
2023/07/01 03:01:08;;;;;;;;;;;;;;;16.20;66.73;99960.13;7350018;19;20359;-58
2023/07/01 03:03:34;;;;;;;;;;;;;;;16.20;67.04;99956.66;7348671;19;20029;-58
2023/07/01 03:05:59;;;;;;;;;;;;;;;16.20;67.25;99959.28;7350000;19;19934;-57
2023/07/01 03:08:24;;;;;;;;;;;;;;;16.18;67.29;99946.22;7351497;19;20344;-58
2023/07/01 03:10:50;;;;;;;;;;;;;;;16.19;67.50;99950.53;7342717;19;19919;-57
2023/07/01 03:13:16;;;;;;;;;;;;;;;16.19;67.51;99945.28;7348198;19;19943;-58
2023/07/01 03:15:41;;;;;;;;;;;;;;;16.20;67.67;99949.59;7349556;19;19915;-57
2023/07/01 03:18:07;;;;;;;;;;;;;;;16.19;67.30;99945.28;7351921;19;19919;-58
2023/07/01 03:20:32;;;;;;;;;;;;;;;16.19;67.24;99940.00;7350374;19;19911;-58
2023/07/01 03:22:57;;;;;;;;;;;;;;;16.19;67.63;99944.44;7349171;19;19928;-58
2023/07/01 03:25:26;;;;;;;;;;;;;;;16.18;67.20;99932.19;7350236;19;19923;-57
2023/07/01 03:27:51;;;;;;;;;;;;;;;16.17;67.65;99936.63;7350381;19;20350;-58
2023/07/01 03:30:17;;;;;;;;;;;;;;;16.16;67.17;99934.91;7350046;19;19914;-58
2023/07/01 03:32:43;;;;;;;;;;;;;;;16.14;67.25;99936.78;7349539;19;20733;-57
2023/07/01 03:35:09;;;;;;;;;;;;;;;16.13;67.41;99929.84;7347613;19;20462;-58
2023/07/01 03:37:35;;;;;;;;;;;;;;;16.11;67.11;99931.69;7351866;19;20332;-57
2023/07/01 03:40:01;;;;;;;;;;;;;;;16.10;67.17;99940.53;7349479;19;19922;-58
2023/07/01 03:42:26;;;;;;;;;;;;;;;16.09;67.50;99930.94;7349080;19;20711;-57
2023/07/01 03:44:51;;;;;;;;;;;;;;;16.09;67.62;99941.47;7349458;19;19918;-57
2023/07/01 03:47:16;;;;;;;;;;;;;;;16.08;67.41;99929.25;7349692;19;19998;-57
2023/07/01 03:49:41;;;;;;;;;;;;;;;16.07;67.69;99936.31;7349986;19;20738;-57
2023/07/01 03:52:08;;;;;;;;;;;;;;;16.07;67.22;99940.72;7347992;19;19919;-57
2023/07/01 03:54:33;;;;;;;;;;;;;;;15.90;67.34;99914.50;7348021;19;19923;-58
2023/07/01 03:56:58;;;;;;;;;;;;;;;16.06;67.23;99944.28;7349394;19;19925;-57
2023/07/01 03:59:24;;;;;;;;;;;;;;;16.05;67.87;99959.22;7350082;19;19964;-57
2023/07/01 04:01:49;;;;;;;;;;;;;;;16.05;67.88;99942.59;7346589;19;20747;-57
2023/07/01 04:04:14;;;;;;;;;;;;;;;16.02;67.94;99938.34;7348078;19;20556;-57
2023/07/01 04:06:40;;;;;;;;;;;;;;;16.05;67.78;99937.31;7349591;19;20018;-58
2023/07/01 04:09:05;;;;;;;;;;;;;;;16.03;67.82;99939.19;7347507;19;21019;-57
2023/07/01 04:11:31;;;;;;;;;;;;;;;16.02;67.91;99926.97;7349188;19;19949;-57
2023/07/01 04:13:57;;;;;;;;;;;;;;;15.66;67.50;99870.22;7349859;19;19929;-57
2023/07/01 04:16:23;;;;;;;;;;;;;;;16.02;68.07;99942.78;7353128;19;19926;-57
2023/07/01 04:18:48;;;;;;;;;;;;;;;16.01;67.74;99939.25;7346642;19;19927;-58
2023/07/01 04:21:14;;;;;;;;;;;;;;;16.01;67.84;99936.63;7350196;19;20402;-57
2023/07/01 04:23:39;;;;;;;;;;;;;;;16.00;67.96;99929.66;7344971;19;19919;-57
2023/07/01 04:26:05;;;;;;;;;;;;;;;16.00;67.96;99932.31;7349396;19;20595;-58
2023/07/01 04:28:30;;;;;;;;;;;;;;;16.01;67.91;99941.06;7349279;19;19921;-57
2023/07/01 04:30:55;;;;;;;;;;;;;;;16.01;67.77;99935.78;7350349;19;19948;-58
2023/07/01 04:33:21;;;;;;;;;;;;;;;16.02;68.12;99933.09;7348920;19;19919;-57
2023/07/01 04:35:46;;;;;;;;;;;;;;;16.05;67.81;99939.94;7348984;19;20018;-58
2023/07/01 04:38:11;;;;;;;;;;;;;;;16.04;68.19;99940.88;7347485;19;20270;-58
2023/07/01 04:40:36;;;;;;;;;;;;;;;16.06;68.06;99944.28;7349824;19;19915;-57
2023/07/01 04:43:02;;;;;;;;;;;;;;;16.06;68.15;99942.47;7347198;19;20659;-57
2023/07/01 04:45:29;;;;;;;;;;;;;;;15.93;67.96;99922.22;7350121;19;19922;-58
2023/07/01 04:47:55;;;;;;;;;;;;;;;16.08;68.03;99943.25;7345245;19;19919;-57
2023/07/01 04:50:20;;;;;;;;;;;;;;;16.09;68.35;99944.09;7348826;19;19934;-57
2023/07/01 04:52:45;;;;;;;;;;;;;;;16.10;68.37;99951.06;7347599;19;19927;-57
2023/07/01 04:55:10;;;;;;;;;;;;;;;16.10;68.49;99956.34;7348054;19;19918;-57
2023/07/01 04:57:36;;;;;;;;;;;;;;;16.11;68.36;99963.28;7345104;19;19914;-57
2023/07/01 05:00:02;;;;;;;;;;;;;;;16.13;68.46;99966.72;7347834;19;19926;-57
2023/07/01 05:02:30;;;;;;;;;;;;;;;16.13;68.21;99956.16;7347669;19;19929;-58
2023/07/01 05:04:55;;;;;;;;;;;;;;;16.14;68.20;99968.41;7348516;19;19919;-57
2023/07/01 05:07:20;;;;;;;;;;;;;;;16.16;68.27;99971.78;7346817;19;19922;-58
2023/07/01 05:09:45;;;;;;;;;;;;;;;16.16;68.36;99955.13;7348647;19;20739;-58
2023/07/01 05:12:11;;;;;;;;;;;;;;;16.17;68.17;99957.69;7345451;19;20465;-57
2023/07/01 05:14:36;;;;;;;;;;;;;;;16.17;68.28;99962.97;7348351;19;19923;-57
2023/07/01 05:17:01;;;;;;;;;;;;;;;16.18;68.29;99954.13;7347250;19;19921;-58
2023/07/01 05:19:27;;;;;;;;;;;;;;;16.18;68.40;99948.00;7345577;19;19919;-57
2023/07/01 05:21:53;;;;;;;;;;;;;;;16.18;67.93;99954.13;7346927;19;20450;-58
2023/07/01 05:24:19;;;;;;;;;;;;;;;16.20;67.98;99964.56;7347713;19;19911;-57
2023/07/01 05:26:47;;;;;;;;;;;;;;;16.19;67.97;99961.06;7345913;19;19955;-57
2023/07/01 05:29:13;;;;;;;;;;;;;;;16.19;68.41;99955.81;7349210;19;19922;-57
2023/07/01 05:31:38;;;;;;;;;;;;;;;16.20;68.37;99962.78;7345026;19;20014;-59
2023/07/01 05:34:03;;;;;;;;;;;;;;;16.22;68.55;99965.31;7343303;19;20024;-58
2023/07/01 05:36:29;;;;;;;;;;;;;;;16.23;68.28;99962.59;7346343;19;19923;-58
2023/07/01 05:38:54;;;;;;;;;;;;;;;16.26;68.17;99957.13;7346162;19;20339;-59
2023/07/01 05:41:19;;;;;;;;;;;;;;;16.29;68.16;99962.25;7348032;19;19939;-59
2023/07/01 05:43:45;;;;;;;;;;;;;;;16.31;68.28;99963.00;7346552;19;19926;-59
2023/07/01 05:46:10;;;;;;;;;;;;;;;16.36;68.55;99968.00;7348058;19;22080;-59
2023/07/01 05:48:35;;;;;;;;;;;;;;;16.41;68.71;99970.38;7345937;19;20025;-58
2023/07/01 05:51:00;;;;;;;;;;;;;;;16.44;68.24;99972.84;7346643;19;19942;-58
2023/07/01 05:53:26;;;;;;;;;;;;;;;16.46;68.14;99963.03;7346420;19;19931;-59
2023/07/01 05:55:51;;;;;;;;;;;;;;;16.48;68.03;99966.44;7345330;19;20481;-59
2023/07/01 05:58:16;;;;;;;;;;;;;;;16.50;67.90;99975.09;7342833;19;20029;-58
2023/07/01 06:00:41;;;;;;;;;;;;;;;16.13;67.64;99906.13;7343995;19;19981;-58
2023/07/01 06:03:08;;;;;;;;;;;;;;;16.51;67.56;99977.63;7345094;19;20021;-58
2023/07/01 06:05:33;;;;;;;;;;;;;;;16.52;67.45;99968.78;7343609;19;19927;-59
2023/07/01 06:07:58;;;;;;;;;;;;;;;16.53;67.67;99969.66;7344652;19;20263;-58
2023/07/01 06:10:24;;;;;;;;;;;;;;;16.52;67.47;99978.47;7345247;19;19926;-59
2023/07/01 06:12:49;;;;;;;;;;;;;;;16.52;67.70;99975.84;7344407;19;20620;-58
2023/07/01 06:15:14;;;;;;;;;;;;;;;16.51;67.41;99979.44;7344212;19;19948;-58
2023/07/01 06:17:39;;;;;;;;;;;;;;;16.52;67.76;99978.47;7346021;19;20271;-58
2023/07/01 06:20:05;;;;;;;;;;;;;;;16.51;67.35;99982.06;7343240;19;19941;-59
2023/07/01 06:22:30;;;;;;;;;;;;;;;16.54;67.54;99989.81;7344842;19;19930;-59
2023/07/01 06:24:55;;;;;;;;;;;;;;;16.57;68.08;99997.50;7348223;19;19919;-58
2023/07/01 06:27:21;;;;;;;;;;;;;;;16.61;68.08;99999.03;7350989;19;19925;-58
2023/07/01 06:29:46;;;;;;;;;;;;;;;16.65;67.69;100005.84;7349658;19;19975;-59
2023/07/01 06:32:11;;;;;;;;;;;;;;;16.72;67.89;99987.88;7351880;19;20343;-59
2023/07/01 06:34:36;;;;;;;;;;;;;;;16.79;67.85;99998.00;7351416;19;20582;-58
2023/07/01 06:37:02;;;;;;;;;;;;;;;16.83;68.07;99988.97;7348949;19;20026;-58
2023/07/01 06:39:27;;;;;;;;;;;;;;;16.90;67.90;99994.72;7348562;19;19959;-59
2023/07/01 06:41:52;;;;;;;;;;;;;;;16.95;67.75;99997.06;7351197;19;19919;-58
2023/07/01 06:44:18;;;;;;;;;;;;;;;16.99;67.91;99994.16;7349584;19;19923;-59
2023/07/01 06:46:43;;;;;;;;;;;;;;;17.06;67.82;100010.44;7350675;19;19926;-58
2023/07/01 06:49:08;;;;;;;;;;;;;;;17.08;67.29;100022.63;7349459;19;20662;-59
2023/07/01 06:51:34;;;;;;;;;;;;;;;17.12;67.16;100020.63;7349633;19;20331;-58
2023/07/01 06:53:59;;;;;;;;;;;;;;;17.16;67.05;100021.31;7347992;19;19914;-59
2023/07/01 06:56:24;;;;;;;;;;;;;;;17.18;67.34;100014.97;7350649;19;20676;-59
2023/07/01 06:58:49;;;;;;;;;;;;;;;17.20;66.98;100017.53;7351601;19;19918;-58
2023/07/01 07:01:15;;;;;;;;;;;;;;;17.21;66.74;100009.53;7351399;19;20636;-59
2023/07/01 07:03:40;;;;;;;;;;;;;;;17.22;66.54;100005.09;7350416;19;20132;-58
2023/07/01 07:06:06;;;;;;;;;;;;;;;17.21;66.90;100014.81;7352086;19;19929;-59
2023/07/01 07:08:31;;;;;;;;;;;;;;;17.20;66.57;99997.28;7351759;19;20660;-60
2023/07/01 07:10:57;;;;;;;;;;;;;;;17.20;66.72;100002.56;7349872;19;20014;-58
2023/07/01 07:13:22;;;;;;;;;;;;;;;17.21;66.80;100009.53;7349594;19;19923;-59
2023/07/01 07:15:47;;;;;;;;;;;;;;;17.20;66.88;99992.00;7348486;19;19935;-58
2023/07/01 07:18:12;;;;;;;;;;;;;;;17.22;66.88;99994.53;7350726;19;19938;-59
2023/07/01 07:20:38;;;;;;;;;;;;;;;17.24;66.97;99995.31;7350458;19;19923;-58
2023/07/01 07:23:05;;;;;;;;;;;;;;;17.25;67.25;99984.66;7349309;19;20556;-59
2023/07/01 07:25:31;;;;;;;;;;;;;;;17.28;67.09;99979.16;7347115;19;19923;-59
2023/07/01 07:27:56;;;;;;;;;;;;;;;17.31;67.08;99979.00;7349768;19;20651;-58
2023/07/01 07:30:22;;;;;;;;;;;;;;;17.34;66.91;99978.81;7350052;19;19998;-59
2023/07/01 07:32:47;;;;;;;;;;;;;;;17.36;67.16;99987.47;7348679;19;19943;-59
2023/07/01 07:35:12;;;;;;;;;;;;;;;17.41;66.99;99986.34;7347943;19;20617;-59
2023/07/01 07:37:38;;;;;;;;;;;;;;;17.46;67.02;99997.47;7348212;19;19936;-58
2023/07/01 07:40:05;;;;;;;;;;;;;;;17.50;67.21;99993.69;7348331;19;19923;-58
2023/07/01 07:42:31;;;;;;;;;;;;;;;17.54;66.97;100000.47;7348032;19;20155;-59
2023/07/01 07:44:56;;;;;;;;;;;;;;;17.58;66.50;99997.53;7349162;19;19919;-58
2023/07/01 07:47:21;;;;;;;;;;;;;;;17.60;66.58;99989.53;7349292;19;20454;-59
2023/07/01 07:49:46;;;;;;;;;;;;;;;17.64;66.19;100001.59;7347404;19;19925;-59
2023/07/01 07:52:12;;;;;;;;;;;;;;;17.68;65.92;100002.22;7349275;19;19933;-59
2023/07/01 07:54:37;;;;;;;;;;;;;;;17.71;66.17;100013.44;7348092;19;19918;-59
2023/07/01 07:57:03;;;;;;;;;;;;;;;17.73;65.58;100006.31;7348603;19;19935;-59
2023/07/01 07:59:28;;;;;;;;;;;;;;;17.76;65.25;100008.75;7348026;19;20373;-59
2023/07/01 08:01:54;;;;;;;;;;;;;;;17.77;65.57;100013.09;7349586;19;19919;-58
2023/07/01 08:04:20;;;;;;;;;;;;;;;17.78;65.01;100020.06;7346800;19;19919;-59
2023/07/01 08:06:45;;;;;;;;;;;;;;;17.81;65.36;100040.16;7350051;19;19922;-59
2023/07/01 08:09:11;;;;;;;;;;;;;;;17.83;64.81;100022.41;7345731;19;19915;-59
2023/07/01 08:11:36;;;;;;;;;;;;;;;17.84;64.79;100021.47;7349039;19;19918;-59
2023/07/01 08:14:01;;;;;;;;;;;;;;;17.86;64.81;100023.06;7346699;19;20011;-58
2023/07/01 08:16:26;;;;;;;;;;;;;;;17.91;64.38;100029.88;7349799;19;19919;-59
2023/07/01 08:18:52;;;;;;;;;;;;;;;17.63;64.08;99973.47;7346479;19;19915;-59
2023/07/01 08:21:17;;;;;;;;;;;;;;;17.99;63.25;100025.75;7349199;19;19940;-59
2023/07/01 08:23:42;;;;;;;;;;;;;;;18.00;63.62;100021.34;7345396;19;19919;-58
2023/07/01 08:26:08;;;;;;;;;;;;;;;18.02;62.78;100016.81;7349808;19;20717;-59
2023/07/01 08:28:33;;;;;;;;;;;;;;;18.05;62.40;100038.59;7347562;19;20305;-59
2023/07/01 08:30:58;;;;;;;;;;;;;;;17.93;62.41;99996.25;7349366;19;19919;-58
2023/07/01 08:33:24;;;;;;;;;;;;;;;18.10;62.36;100022.47;7348111;19;19927;-58
2023/07/01 08:35:50;;;;;;;;;;;;;;;18.13;62.30;100028.38;7347109;19;19930;-59
2023/07/01 08:38:15;;;;;;;;;;;;;;;18.15;62.11;100026.50;7346497;19;19940;-59
2023/07/01 08:40:40;;;;;;;;;;;;;;;18.18;61.97;100033.34;7348068;19;19926;-59
2023/07/01 08:43:07;;;;;;;;;;;;;;;18.23;61.65;100019.84;7346162;19;19926;-59
2023/07/01 08:45:32;;;;;;;;;;;;;;;18.27;61.54;100037.22;7347249;19;19915;-58
2023/07/01 08:47:58;;;;;;;;;;;;;;;18.31;61.08;100050.13;7344876;19;19968;-58
2023/07/01 08:50:25;;;;;;;;;;;;;;;18.35;61.33;100041.06;7347157;19;19922;-59
2023/07/01 08:53:02;;;;;;;;;;;;;;;18.41;61.73;100038.00;7347122;19;20407;-59
2023/07/01 08:55:29;;;;;;;;;;;;;;;18.51;61.59;100037.41;7344183;19;19934;-59
2023/07/01 08:57:55;;;;;;;;;;;;;;;18.58;61.25;100036.03;7348045;19;20751;-58
2023/07/01 09:00:20;;;;;;;;;;;;;;;18.64;61.50;100041.75;7346494;19;19933;-58
2023/07/01 09:02:47;;;;;;;;;;;;;;;18.70;61.43;100051.09;7347585;19;19947;-58
2023/07/01 09:05:13;;;;;;;;;;;;;;;18.78;61.31;100047.97;7346532;19;19914;-59
2023/07/01 09:07:40;;;;;;;;;;;;;;;18.86;60.27;100057.09;7346333;19;19945;-59
2023/07/01 09:10:07;;;;;;;;;;;;;;;18.94;60.19;100059.19;7346885;19;19919;-58
2023/07/01 09:12:32;;;;;;;;;;;;;;;19.00;59.55;100057.94;7345385;19;19984;-59
2023/07/01 09:15:04;;;;;;;;;;;;;;;19.03;59.69;100061.22;7347536;19;19940;-59
2023/07/01 09:17:31;;;;;;;;;;;;;;;19.07;59.63;100059.22;7346431;19;21544;-59
2023/07/01 09:20:00;;;;;;;;;;;;;;;19.10;59.55;100059.00;7347394;19;20494;-58
2023/07/01 09:22:26;;;;;;;;;;;;;;;19.15;59.65;100047.16;7346225;19;21415;-59
2023/07/01 09:24:52;;;;;;;;;;;;;;;19.21;59.73;100056.50;7345345;19;19923;-58
2023/07/01 09:27:17;;;;;;;;;;;;;;;19.27;59.65;100055.22;7346048;19;19919;-59
2023/07/01 09:29:42;;;;;;;;;;;;;;;19.35;58.70;100053.72;7344556;19;20756;-58
2023/07/01 09:32:08;;;;;;;;;;;;;;;19.40;59.00;100056.88;7347138;19;19935;-59
2023/07/01 09:34:58;;;;;;;;;;;;;;;19.49;59.26;100059.84;7346622;19;19922;-59
2023/07/01 09:37:27;;;;;;;;;;;;;;;19.62;58.96;100061.59;7343315;19;19983;-58
2023/07/01 09:39:52;;;;;;;;;;;;;;;19.80;58.98;100070.00;7343842;19;20056;-58
2023/07/01 09:42:21;;;;;;;;;;;;;;;19.98;58.53;100064.38;7346892;19;20455;-59
2023/07/01 09:45:06;;;;;;;;;;;;;;;20.16;57.80;100076.28;7346031;19;19943;-59
2023/07/01 09:47:32;;;;;;;;;;;;;;;20.29;57.69;100076.25;7346411;19;20329;-59
2023/07/01 09:49:57;;;;;;;;;;;;;;;20.37;57.10;100069.41;7346279;19;19935;-58
2023/07/01 09:52:32;;;;;;;;;;;;;;;20.43;56.99;100074.28;7345605;19;19938;-59
2023/07/01 09:54:59;;;;;;;;;;;;;;;20.51;56.48;100075.53;7346382;19;19926;-59
2023/07/01 09:57:25;;;;;;;;;;;;;;;20.58;56.25;100076.75;7344958;19;20539;-59
2023/07/01 09:59:51;;;;;;;;;;;;;;;20.70;56.32;100071.41;7351364;19;19936;-59
2023/07/01 10:02:16;;;;;;;;;;;;;;;20.84;55.66;100062.41;7349675;19;20630;-59
2023/07/01 10:04:42;;;;;;;;;;;;;;;20.97;56.38;100073.78;7353937;19;19919;-59
2023/07/01 10:07:07;;;;;;;;;;;;;;;21.02;55.96;100051.34;7353442;19;20067;-57
2023/07/01 10:09:32;;;;;;;;;;;;;;;21.25;55.89;100066.38;7353019;19;19979;-59
2023/07/01 10:11:58;;;;;;;;;;;;;;;21.34;55.50;100065.69;7353791;19;19961;-59
2023/07/01 10:14:25;;;;;;;;;;;;;;;21.42;54.96;100065.94;7352462;19;19996;-59
2023/07/01 10:16:51;;;;;;;;;;;;;;;21.50;54.99;100060.88;7344734;19;19938;-59
2023/07/01 10:19:29;;;;;;;;;;;;;;;21.30;54.97;100013.78;7352162;19;19921;-59
2023/07/01 10:22:13;;;;;;;;;;;;;;;21.81;54.04;100062.91;7352697;19;20251;-59
2023/07/01 10:24:39;;;;;;;;;;;;;;;22.05;54.09;100065.41;7352961;19;20716;-59
2023/07/01 10:27:04;;;;;;;;;;;;;;;22.28;53.62;100061.75;7353910;19;19919;-59
2023/07/01 10:29:36;;;;;;;;;;;;;;;22.54;53.09;100052.47;7352493;19;19929;-59
2023/07/01 10:32:07;;;;;;;;;;;;;;;22.82;52.28;100060.00;7352180;19;19915;-59
2023/07/01 10:34:51;;;;;;;;;;;;;;;23.07;52.40;100051.66;7352353;19;20592;-59
2023/07/01 10:37:17;;;;;;;;;;;;;;;23.37;51.91;100061.50;7351666;19;19923;-59
2023/07/01 10:39:42;;;;;;;;;;;;;;;23.68;51.58;100053.53;7352745;19;19919;-59
2023/07/01 10:42:31;;;;;;;;;;;;;;;23.97;51.12;100065.09;7353496;19;20402;-59
2023/07/01 10:45:11;;;;;;;;;;;;;;;24.31;50.17;100051.44;7347480;19;19922;-59
2023/07/01 10:47:44;;;;;;;;;;;;;;;24.58;49.11;100061.44;7352910;19;19915;-59
2023/07/01 10:50:10;;;;;;;;;;;;;;;24.78;47.91;100051.59;7352255;19;19918;-58
2023/07/01 10:52:54;;;;;;;;;;;;;;;24.89;48.21;100059.47;7352608;19;19931;-59
2023/07/01 10:55:35;;;;;;;;;;;;;;;24.97;48.05;100067.59;7352591;19;20779;-58
2023/07/01 10:58:13;;;;;;;;;;;;;;;25.05;47.16;100073.09;7351448;19;20697;-59
2023/07/01 11:00:38;;;;;;;;;;;;;;;25.08;46.03;100072.81;7351044;19;19936;-58
2023/07/01 11:03:09;;;;;;;;;;;;;;;25.11;45.44;100074.38;7352000;19;19927;-59
2023/07/01 11:05:36;;;;;;;;;;;;;;;25.13;45.43;100075.06;7350504;19;19923;-58
2023/07/01 11:08:08;;;;;;;;;;;;;;;25.10;45.48;100076.22;7352271;19;19937;-58
2023/07/01 11:10:34;;;;;;;;;;;;;;;25.04;45.34;100082.09;7349897;19;19931;-58
2023/07/01 11:13:01;;;;;;;;;;;;;;;24.93;44.73;100100.91;7353283;19;19930;-59
2023/07/01 11:15:26;;;;;;;;;;;;;;;24.78;44.66;100092.50;7347817;19;19923;-59
2023/07/01 11:17:53;;;;;;;;;;;;;;;24.62;45.57;100102.06;7352208;19;19934;-58
2023/07/01 11:20:18;;;;;;;;;;;;;;;24.43;45.82;100093.06;7348290;19;20010;-59
2023/07/01 11:22:43;;;;;;;;;;;;;;;24.27;45.61;100104.22;7352165;19;20398;-59
2023/07/01 11:25:09;;;;;;;;;;;;;;;24.10;46.06;100098.72;7350261;19;19918;-59
2023/07/01 11:27:40;;;;;;;;;;;;;;;23.93;46.14;100101.06;7351188;19;20352;-59
2023/07/01 11:30:05;;;;;;;;;;;;;;;23.75;45.87;100092.00;7350272;19;19922;-58
2023/07/01 11:32:30;;;;;;;;;;;;;;;23.59;46.29;100112.94;7351838;19;22394;-59
2023/07/01 11:34:57;;;;;;;;;;;;;;;23.40;46.31;100116.31;7349767;19;19978;-59
2023/07/01 11:37:24;;;;;;;;;;;;;;;23.21;46.24;100117.03;7350388;19;19918;-58
2023/07/01 11:39:49;;;;;;;;;;;;;;;22.82;46.04;100079.47;7348853;19;19933;-58
2023/07/01 11:42:14;;;;;;;;;;;;;;;22.83;45.87;100110.44;7349838;19;19922;-59
2023/07/01 11:44:40;;;;;;;;;;;;;;;22.65;46.08;100120.78;7350360;19;20622;-58
2023/07/01 11:47:12;;;;;;;;;;;;;;;22.47;46.49;100115.16;7351141;19;19923;-58
2023/07/01 11:49:37;;;;;;;;;;;;;;;22.30;46.32;100118.34;7349980;19;19922;-58
2023/07/01 11:52:04;;;;;;;;;;;;;;;22.15;46.67;100115.13;7349730;19;19923;-58
2023/07/01 11:54:37;;;;;;;;;;;;;;;22.03;46.82;100116.91;7347686;19;19923;-58
2023/07/01 11:57:09;;;;;;;;;;;;;;;22.01;48.03;100121.50;7349626;19;19919;-59
2023/07/01 11:59:36;;;;;;;;;;;;;;;22.05;48.55;100129.22;7350236;19;19919;-59
2023/07/01 12:02:01;;;;;;;;;;;;;;;22.14;48.64;100128.53;7349998;19;20725;-59
2023/07/01 12:04:29;;;;;;;;;;;;;;;22.29;49.04;100132.59;7350750;19;19915;-59
2023/07/01 12:07:11;;;;;;;;;;;;;;;22.46;49.35;100128.59;7348864;19;21052;-58
2023/07/01 12:09:37;;;;;;;;;;;;;;;22.62;48.92;100128.19;7350440;19;19927;-59
2023/07/01 12:12:03;;;;;;;;;;;;;;;22.71;48.22;100132.75;7348095;19;19923;-59
2023/07/01 12:14:29;;;;;;;;;;;;;;;22.75;48.44;100128.84;7350970;19;20882;-59
2023/07/01 12:16:54;;;;;;;;;;;;;;;22.75;48.13;100127.03;7349085;19;19931;-59
2023/07/01 12:19:20;;;;;;;;;;;;;;;22.75;47.77;100123.53;7350741;19;19951;-58
2023/07/01 12:21:46;;;;;;;;;;;;;;;22.77;47.72;100110.97;7346080;19;21200;-58
2023/07/01 12:24:18;;;;;;;;;;;;;;;22.80;47.50;100122.16;7350373;19;19915;-58
2023/07/01 12:26:44;;;;;;;;;;;;;;;22.94;48.06;100133.53;7347507;19;20356;-59
2023/07/01 12:29:09;;;;;;;;;;;;;;;23.20;48.26;100150.00;7350309;19;26408;-59
2023/07/01 12:31:34;;;;;;;;;;;;;;;23.58;48.17;100143.25;7345944;19;19936;-58
2023/07/01 12:34:00;;;;;;;;;;;;;;;23.99;48.11;100132.50;7350232;19;19930;-58
2023/07/01 12:36:26;;;;;;;;;;;;;;;24.45;48.66;100128.47;7346912;19;20380;-59
2023/07/01 12:38:52;;;;;;;;;;;;;;;24.90;47.41;100133.28;7350048;19;19927;-59